Prince Rupert Airport

CYPR | YPR

Prince Rupert , British Columbia , Canada

Wednesday, October 23rd, 2019 | 21:53

Weather

CYPR 240436Z AUTO 14015G26KT 9SM -RA BKN029 OVC039 10/08 A3009 RMK SLP192

Charts

No Charts Available

Gates

5 Available

Runways

1 Available

Events

No events for this airport


New event